createdAt,value
2023-05-04T00:00:08.542Z,102589.75
2023-05-04T00:02:35.270Z,102581.91
2023-05-04T00:05:02.647Z,102564.91
2023-05-04T00:07:29.340Z,102580.38
2023-05-04T00:09:55.977Z,102586.31
2023-05-04T00:12:22.677Z,102589.13
2023-05-04T00:14:49.253Z,102590.84
2023-05-04T00:17:15.938Z,102584.44
2023-05-04T00:19:44.264Z,102585.28
2023-05-04T00:22:10.975Z,102588.44
2023-05-04T00:24:37.670Z,102590.72
2023-05-04T00:27:04.328Z,102583.19
2023-05-04T00:29:31.295Z,102581.97
2023-05-04T00:31:57.992Z,102586.34
2023-05-04T00:34:24.781Z,102583.09
2023-05-04T00:36:52.424Z,102572.06
2023-05-04T00:39:19.135Z,102576.63
2023-05-04T00:41:46.732Z,102568.84
2023-05-04T00:44:13.378Z,102567.88
2023-05-04T00:46:40.726Z,102572.13
2023-05-04T00:49:08.177Z,102567.59
2023-05-04T00:51:35.335Z,102553.94
2023-05-04T00:54:02.405Z,102564.97
2023-05-04T00:56:29.918Z,102553.75
2023-05-04T00:58:58.506Z,102552.34
2023-05-04T01:01:25.968Z,102558.03
2023-05-04T01:03:55.105Z,102561.53
2023-05-04T01:06:39.812Z,102553.19
2023-05-04T01:09:27.750Z,102552.06
2023-05-04T01:12:12.245Z,102559.13
2023-05-04T01:14:39.853Z,102555.34
2023-05-04T01:17:08.120Z,102554.31
2023-05-04T01:19:35.412Z,102547.75
2023-05-04T01:22:02.113Z,102546.59
2023-05-04T01:24:29.414Z,102548.00
2023-05-04T01:27:03.010Z,102555.16
2023-05-04T01:29:45.475Z,102543.84
2023-05-04T01:32:14.981Z,102551.16
2023-05-04T01:34:42.183Z,102546.59
2023-05-04T01:37:08.924Z,102515.41
2023-05-04T01:39:35.669Z,102546.00
2023-05-04T01:42:02.531Z,102541.47
2023-05-04T01:44:29.242Z,102541.47
2023-05-04T01:46:55.833Z,102503.25
2023-05-04T01:49:22.612Z,102537.69
2023-05-04T01:51:49.728Z,102544.22
2023-05-04T01:54:16.410Z,102534.81
2023-05-04T01:56:42.997Z,102534.81
2023-05-04T01:59:09.676Z,102535.56
2023-05-04T02:01:36.646Z,102526.34
2023-05-04T02:04:03.733Z,102527.56
2023-05-04T02:06:30.721Z,102531.66
2023-05-04T02:08:57.325Z,102526.22
2023-05-04T02:11:23.852Z,102523.16
2023-05-04T02:13:50.601Z,102521.63
2023-05-04T02:16:17.441Z,102510.44
2023-05-04T02:18:44.071Z,102531.19
2023-05-04T02:21:10.651Z,102525.28
2023-05-04T02:23:37.198Z,102528.06
2023-05-04T02:26:04.079Z,102526.53
2023-05-04T02:28:30.863Z,102523.00
2023-05-04T02:30:57.490Z,102521.69
2023-05-04T02:33:24.112Z,102525.22
2023-05-04T02:35:51.846Z,102517.22
2023-05-04T02:38:19.977Z,102526.06
2023-05-04T02:40:46.655Z,102527.59
2023-05-04T02:43:14.354Z,102526.06
2023-05-04T02:45:41.049Z,102527.78
2023-05-04T02:48:07.741Z,102507.81
2023-05-04T02:50:34.504Z,102510.84
2023-05-04T02:53:01.038Z,102530.31
2023-05-04T02:55:27.671Z,102512.31
2023-05-04T02:57:54.234Z,102529.81
2023-05-04T03:00:21.048Z,102527.44
2023-05-04T03:02:47.697Z,102530.28
2023-05-04T03:05:14.640Z,102520.78
2023-05-04T03:07:41.225Z,102494.97
2023-05-04T03:10:09.289Z,102506.88
2023-05-04T03:12:36.006Z,102459.13
2023-05-04T03:15:02.723Z,102518.38
2023-05-04T03:17:29.303Z,102513.03
2023-05-04T03:19:55.937Z,102491.50
2023-05-04T03:22:22.495Z,102517.19
2023-05-04T03:24:49.204Z,102517.44
2023-05-04T03:27:15.897Z,102510.88
2023-05-04T03:29:42.672Z,102516.84
2023-05-04T03:32:09.418Z,102521.41
2023-05-04T03:34:36.122Z,102521.31
2023-05-04T03:37:02.765Z,102525.41
2023-05-04T03:39:29.499Z,102513.69
2023-05-04T03:41:56.096Z,102503.31
2023-05-04T03:44:22.699Z,102509.69
2023-05-04T03:46:49.410Z,102518.25
2023-05-04T03:49:15.955Z,102518.00
2023-05-04T03:51:42.724Z,102519.97
2023-05-04T03:54:09.402Z,102516.69
2023-05-04T03:56:36.057Z,102511.94
2023-05-04T03:59:02.693Z,102516.16
2023-05-04T04:01:29.321Z,102504.94
2023-05-04T04:03:56.295Z,102468.72
2023-05-04T04:06:23.556Z,102508.97
2023-05-04T04:08:50.315Z,102501.16
2023-05-04T04:11:16.982Z,102514.19
2023-05-04T04:13:43.557Z,102522.44
2023-05-04T04:16:10.570Z,102504.75
2023-05-04T04:18:37.144Z,102539.19
2023-05-04T04:21:03.908Z,102537.28
2023-05-04T04:23:31.112Z,102542.47
2023-05-04T04:25:57.707Z,102537.56
2023-05-04T04:28:24.311Z,102536.16
2023-05-04T04:30:51.674Z,102531.84
2023-05-04T04:33:18.813Z,102532.63
2023-05-04T04:35:45.639Z,102527.44
2023-05-04T04:38:13.920Z,102522.47
2023-05-04T04:40:40.757Z,102527.72
2023-05-04T04:43:08.728Z,102528.66
2023-05-04T04:45:37.888Z,102527.06
2023-05-04T04:48:04.746Z,102527.81
2023-05-04T04:50:32.315Z,102532.38
2023-05-04T04:53:00.167Z,102534.63
2023-05-04T04:55:27.933Z,102527.66
2023-05-04T04:57:55.673Z,102535.31
2023-05-04T05:00:23.148Z,102535.28
2023-05-04T05:02:51.681Z,102507.91
2023-05-04T05:05:22.340Z,102524.38
2023-05-04T05:07:51.616Z,102523.06
2023-05-04T05:10:19.649Z,102512.56
2023-05-04T05:12:46.560Z,102510.97
2023-05-04T05:15:13.439Z,102501.16
2023-05-04T05:17:41.057Z,102497.91
2023-05-04T05:20:12.900Z,102503.53
2023-05-04T05:22:39.990Z,102501.63
2023-05-04T05:25:08.168Z,102504.44
2023-05-04T05:27:34.898Z,102501.19
2023-05-04T05:30:03.303Z,102501.88
2023-05-04T05:32:30.066Z,102506.00
2023-05-04T05:34:58.849Z,102500.16
2023-05-04T05:37:25.583Z,102495.22
2023-05-04T05:39:52.571Z,102490.16
2023-05-04T05:42:21.179Z,102496.50
2023-05-04T05:44:48.294Z,102476.22
2023-05-04T05:47:15.634Z,102493.34
2023-05-04T05:49:45.460Z,102500.63
2023-05-04T05:52:13.043Z,102501.66
2023-05-04T05:54:39.717Z,102501.81
2023-05-04T05:57:07.335Z,102507.75
2023-05-04T05:59:33.984Z,102499.00
2023-05-04T06:02:00.746Z,102512.06
2023-05-04T06:04:27.465Z,102509.22
2023-05-04T06:06:54.093Z,102509.34
2023-05-04T06:09:21.186Z,102504.34
2023-05-04T06:11:47.791Z,102503.00
2023-05-04T06:14:16.996Z,102506.50
2023-05-04T06:16:46.461Z,102519.75
2023-05-04T06:19:13.253Z,102511.09
2023-05-04T06:21:39.861Z,102510.44
2023-05-04T06:24:09.854Z,102506.06
2023-05-04T06:26:36.517Z,102507.38
2023-05-04T06:29:03.143Z,102504.09
2023-05-04T06:31:30.984Z,102497.91
2023-05-04T06:33:57.887Z,102495.84
2023-05-04T06:36:26.186Z,102489.31
2023-05-04T06:38:55.640Z,102490.19
2023-05-04T06:41:22.309Z,102486.13
2023-05-04T06:43:49.693Z,102482.19
2023-05-04T06:46:19.912Z,102482.78
2023-05-04T06:48:46.688Z,102483.53
2023-05-04T06:51:13.353Z,102479.41
2023-05-04T06:53:41.113Z,102489.31
2023-05-04T06:56:08.539Z,102484.75
2023-05-04T06:58:37.573Z,102483.13
2023-05-04T07:01:09.070Z,102483.56
2023-05-04T07:03:37.174Z,102484.03
2023-05-04T07:06:05.982Z,102497.53
2023-05-04T07:08:33.200Z,102499.06
2023-05-04T07:11:00.940Z,102487.41
2023-05-04T07:13:28.944Z,102507.13
2023-05-04T07:15:56.228Z,102506.44
2023-05-04T07:18:23.326Z,102499.41
2023-05-04T07:20:54.257Z,102495.69
2023-05-04T07:23:22.910Z,102491.59
2023-05-04T07:25:53.809Z,102485.78
2023-05-04T07:28:22.593Z,102485.81
2023-05-04T07:30:49.475Z,102472.56
2023-05-04T07:33:17.137Z,102474.78
2023-05-04T07:35:43.823Z,102477.56
2023-05-04T07:38:11.913Z,102469.78
2023-05-04T07:40:40.800Z,102467.78
2023-05-04T07:43:07.583Z,102468.78
2023-05-04T07:45:34.205Z,102449.06
2023-05-04T07:48:03.164Z,102449.34
2023-05-04T07:50:30.064Z,102460.06
2023-05-04T07:52:56.680Z,102463.13
2023-05-04T07:55:24.803Z,102455.94
2023-05-04T07:57:51.507Z,102463.72
2023-05-04T08:00:20.392Z,102469.56
2023-05-04T08:02:47.268Z,102467.47
2023-05-04T08:05:13.959Z,102466.06
2023-05-04T08:07:40.701Z,102470.38
2023-05-04T08:10:09.943Z,102466.09
2023-05-04T08:12:36.740Z,102470.75
2023-05-04T08:15:04.875Z,102452.03
2023-05-04T08:17:35.076Z,102452.47
2023-05-04T08:20:02.413Z,102448.69
2023-05-04T08:22:29.211Z,102451.53
2023-05-04T08:24:55.892Z,102459.13
2023-05-04T08:27:23.837Z,102449.94
2023-05-04T08:29:50.531Z,102448.66
2023-05-04T08:32:17.708Z,102447.34
2023-05-04T08:34:44.349Z,102433.69
2023-05-04T08:37:11.158Z,102440.03
2023-05-04T08:39:39.395Z,102432.66
2023-05-04T08:42:07.366Z,102429.84
2023-05-04T08:44:34.586Z,102386.81
2023-05-04T08:47:04.475Z,102416.44
2023-05-04T08:49:31.286Z,102415.31
2023-05-04T08:51:59.299Z,102427.81
2023-05-04T08:54:26.267Z,102419.59
2023-05-04T08:56:55.135Z,102424.66
2023-05-04T08:59:23.455Z,102432.59
2023-05-04T09:01:54.611Z,102436.44
2023-05-04T09:04:22.759Z,102435.13
2023-05-04T09:06:53.983Z,102431.72
2023-05-04T09:09:22.194Z,102427.56
2023-05-04T09:11:49.158Z,102427.38
2023-05-04T09:14:16.041Z,102432.44
2023-05-04T09:16:42.741Z,102442.94
2023-05-04T09:19:20.358Z,102418.78
2023-05-04T09:21:49.275Z,102420.66
2023-05-04T09:24:29.313Z,102441.28
2023-05-04T09:27:08.161Z,102439.19
2023-05-04T09:29:37.719Z,102445.22
2023-05-04T09:32:05.161Z,102430.41
2023-05-04T09:34:34.489Z,102442.69
2023-05-04T09:37:02.341Z,102433.16
2023-05-04T09:39:30.409Z,102429.31
2023-05-04T09:41:57.922Z,102420.25
2023-05-04T09:44:27.613Z,102418.56
2023-05-04T09:47:00.570Z,102413.91
2023-05-04T09:49:37.051Z,102416.19
2023-05-04T09:52:05.758Z,102417.41
2023-05-04T09:54:36.290Z,102399.19
2023-05-04T09:57:12.261Z,102395.59
2023-05-04T09:59:39.926Z,102402.66
2023-05-04T10:02:18.691Z,102398.72
2023-05-04T10:04:50.569Z,102395.78
2023-05-04T10:07:18.243Z,102389.81
2023-05-04T10:09:46.885Z,102386.25
2023-05-04T10:12:14.591Z,102397.44
2023-05-04T10:14:42.907Z,102387.31
2023-05-04T10:17:16.083Z,102381.56
2023-05-04T10:20:20.512Z,102380.50
2023-05-04T10:23:25.190Z,102379.81
2023-05-04T10:25:52.398Z,102383.44
2023-05-04T10:28:28.174Z,102385.72
2023-05-04T10:31:00.209Z,102379.59
2023-05-04T10:33:37.423Z,102374.28
2023-05-04T10:36:04.482Z,102366.28
2023-05-04T10:38:35.491Z,102359.59
2023-05-04T10:41:21.987Z,102356.34
2023-05-04T10:43:50.975Z,102347.47
2023-05-04T10:46:24.251Z,102350.06
2023-05-04T10:48:51.654Z,102338.06
2023-05-04T10:51:35.536Z,102345.88
2023-05-04T10:54:05.633Z,102345.03
2023-05-04T10:56:33.272Z,102333.38
2023-05-04T10:59:10.037Z,102343.81
2023-05-04T11:01:47.414Z,102343.56
2023-05-04T11:04:23.110Z,102323.50
2023-05-04T11:07:02.842Z,102339.25
2023-05-04T11:09:42.616Z,102330.91
2023-05-04T11:12:12.775Z,102330.16
2023-05-04T11:14:43.261Z,102326.97
2023-05-04T11:17:27.622Z,102321.94
2023-05-04T11:19:55.348Z,102320.63
2023-05-04T11:22:22.334Z,102311.81
2023-05-04T11:24:49.251Z,102316.34
2023-05-04T11:27:27.676Z,102300.06
2023-05-04T11:29:55.936Z,102309.59
2023-05-04T11:32:23.116Z,102313.91
2023-05-04T11:34:50.918Z,102314.19
2023-05-04T11:37:17.654Z,102314.47
2023-05-04T11:39:44.320Z,102279.25
2023-05-04T11:42:11.270Z,102301.63
2023-05-04T11:44:38.587Z,102306.34
2023-05-04T11:47:05.437Z,102314.28
2023-05-04T11:49:32.524Z,102311.66
2023-05-04T11:52:10.031Z,102302.28
2023-05-04T11:54:39.525Z,102302.53
2023-05-04T11:57:06.170Z,102289.13
2023-05-04T11:59:32.844Z,102283.78
2023-05-04T12:01:59.632Z,102288.25
2023-05-04T12:04:31.894Z,102287.34
2023-05-04T12:07:01.767Z,102295.91
2023-05-04T12:09:28.751Z,102291.09
2023-05-04T12:11:56.407Z,102283.25
2023-05-04T12:14:24.725Z,102272.16
2023-05-04T12:16:55.591Z,102294.66
2023-05-04T12:19:22.297Z,102279.50
2023-05-04T12:21:53.736Z,102274.25
2023-05-04T12:24:24.829Z,102274.31
2023-05-04T12:26:51.647Z,102273.28
2023-05-04T12:29:19.332Z,102283.16
2023-05-04T12:31:46.412Z,102263.91
2023-05-04T12:34:13.252Z,102264.97
2023-05-04T12:36:39.954Z,102257.94
2023-05-04T12:39:06.656Z,102260.22
2023-05-04T12:41:33.588Z,102268.44
2023-05-04T12:44:00.835Z,102266.50
2023-05-04T12:46:27.718Z,102261.25
2023-05-04T12:48:54.572Z,102259.09
2023-05-04T12:51:22.242Z,102263.28
2023-05-04T12:53:49.343Z,102253.91
2023-05-04T12:56:16.137Z,102254.53
2023-05-04T12:58:42.929Z,102250.66
2023-05-04T13:01:09.859Z,102254.56
2023-05-04T13:03:37.108Z,102244.53
2023-05-04T13:06:04.439Z,102238.91
2023-05-04T13:08:31.431Z,102247.34
2023-05-04T13:10:58.029Z,102243.44
2023-05-04T13:13:28.800Z,102235.44
2023-05-04T13:15:56.203Z,102232.28
2023-05-04T13:18:27.640Z,102250.47
2023-05-04T13:20:55.336Z,102233.69
2023-05-04T13:23:25.460Z,102244.97
2023-05-04T13:25:52.524Z,102233.63
2023-05-04T13:28:19.809Z,102231.81
2023-05-04T13:30:46.592Z,102222.13
2023-05-04T13:33:27.291Z,102224.38
2023-05-04T13:35:58.305Z,102232.84
2023-05-04T13:38:25.785Z,102231.00
2023-05-04T13:40:52.685Z,102221.91
2023-05-04T13:43:22.574Z,102218.44
2023-05-04T13:45:49.670Z,102216.47
2023-05-04T13:48:16.325Z,102214.94
2023-05-04T13:50:43.016Z,102221.41
2023-05-04T13:53:11.250Z,102182.78
2023-05-04T13:55:38.662Z,102210.56
2023-05-04T13:58:05.593Z,102207.59
2023-05-04T14:00:32.365Z,102196.75
2023-05-04T14:02:59.541Z,102193.00
2023-05-04T14:05:26.462Z,102194.16
2023-05-04T14:07:53.144Z,102187.66
2023-05-04T14:10:22.749Z,102194.88
2023-05-04T14:12:49.731Z,102192.53
2023-05-04T14:15:16.985Z,102175.13
2023-05-04T14:17:46.014Z,102170.41
2023-05-04T14:20:13.088Z,102174.91
2023-05-04T14:22:42.801Z,102171.13
2023-05-04T14:25:09.999Z,102149.19
2023-05-04T14:27:36.925Z,102153.03
2023-05-04T14:30:04.426Z,102154.88
2023-05-04T14:32:32.286Z,102129.53
2023-05-04T14:35:08.281Z,102159.63
2023-05-04T14:37:43.381Z,102147.91
2023-05-04T14:40:11.919Z,102152.53
2023-05-04T14:42:39.379Z,102147.88
2023-05-04T14:45:08.167Z,102144.16
2023-05-04T14:47:35.507Z,102138.47
2023-05-04T14:50:03.890Z,102133.59
2023-05-04T14:52:31.330Z,102130.88
2023-05-04T14:54:57.915Z,102134.69
2023-05-04T14:57:25.983Z,102137.88
2023-05-04T14:59:52.455Z,102137.94
2023-05-04T15:02:19.461Z,102134.94
2023-05-04T15:04:46.968Z,102142.03
2023-05-04T15:07:16.129Z,102100.56
2023-05-04T15:09:42.828Z,102098.47
2023-05-04T15:12:09.669Z,102142.66
2023-05-04T15:14:36.530Z,102137.00
2023-05-04T15:17:03.630Z,102130.47
2023-05-04T15:19:30.304Z,102136.59
2023-05-04T15:21:56.904Z,102142.44
2023-05-04T15:24:23.523Z,102142.41
2023-05-04T15:26:51.303Z,102136.44
2023-05-04T15:29:17.969Z,102141.19
2023-05-04T15:31:44.678Z,102138.53
2023-05-04T15:34:11.308Z,102132.97
2023-05-04T15:36:39.022Z,102131.28
2023-05-04T15:39:08.207Z,102133.69
2023-05-04T15:41:35.600Z,102086.50
2023-05-04T15:44:03.288Z,102128.97
2023-05-04T15:46:29.918Z,102133.47
2023-05-04T15:48:56.595Z,102131.78
2023-05-04T15:51:23.236Z,102122.16
2023-05-04T15:53:51.337Z,102128.53
2023-05-04T15:56:18.024Z,102127.72
2023-05-04T15:58:45.419Z,102118.25
2023-05-04T16:01:14.631Z,102121.03
2023-05-04T16:03:42.408Z,102081.28
2023-05-04T16:06:09.574Z,102116.72
2023-05-04T16:08:37.030Z,102122.53
2023-05-04T16:11:04.450Z,102111.47
2023-05-04T16:13:31.300Z,102103.84
2023-05-04T16:15:58.158Z,102106.84
2023-05-04T16:18:25.049Z,102092.88
2023-05-04T16:20:51.738Z,102089.69
2023-05-04T16:23:18.667Z,102083.00
2023-05-04T16:25:45.375Z,102088.03
2023-05-04T16:28:12.993Z,102093.94
2023-05-04T16:30:42.275Z,102091.34
2023-05-04T16:33:08.925Z,102096.94
2023-05-04T16:35:36.689Z,102097.06
2023-05-04T16:38:04.016Z,102091.28
2023-05-04T16:40:32.845Z,102084.00
2023-05-04T16:42:59.679Z,102088.97
2023-05-04T16:45:31.285Z,102088.38
2023-05-04T16:47:58.835Z,102069.88
2023-05-04T16:50:25.810Z,102076.66
2023-05-04T16:52:52.437Z,102078.34
2023-05-04T16:55:20.840Z,102070.19
2023-05-04T16:57:47.900Z,102075.38
2023-05-04T17:00:14.937Z,102078.88
2023-05-04T17:02:41.777Z,102066.47
2023-05-04T17:05:10.583Z,102073.09
2023-05-04T17:07:39.677Z,102074.44
2023-05-04T17:10:07.995Z,102065.78
2023-05-04T17:12:35.035Z,102059.81
2023-05-04T17:15:02.379Z,102068.25
2023-05-04T17:17:29.310Z,102061.34
2023-05-04T17:19:56.019Z,102061.56
2023-05-04T17:22:23.589Z,102057.09
2023-05-04T17:24:50.510Z,102050.72
2023-05-04T17:27:17.078Z,102056.63
2023-05-04T17:29:44.157Z,102058.03
2023-05-04T17:32:11.059Z,102062.25
2023-05-04T17:34:37.861Z,102062.16
2023-05-04T17:37:04.522Z,102055.03
2023-05-04T17:39:31.805Z,102064.50
2023-05-04T17:41:59.650Z,102063.94
2023-05-04T17:44:28.185Z,102067.03
2023-05-04T17:46:54.856Z,102063.19
2023-05-04T17:49:22.512Z,102063.19
2023-05-04T17:51:49.509Z,102070.88
2023-05-04T17:54:16.876Z,102043.03
2023-05-04T17:56:43.764Z,102066.00
2023-05-04T17:59:10.495Z,102066.47
2023-05-04T18:01:37.170Z,102060.75
2023-05-04T18:04:04.268Z,102066.88
2023-05-04T18:06:32.782Z,102072.97
2023-05-04T18:09:00.888Z,102072.97
2023-05-04T18:11:27.833Z,102067.53
2023-05-04T18:13:56.492Z,102069.81
2023-05-04T18:16:24.989Z,102070.84
2023-05-04T18:18:52.157Z,102077.47
2023-05-04T18:21:21.197Z,102073.72
2023-05-04T18:23:49.287Z,102081.22
2023-05-04T18:26:22.367Z,102080.94
2023-05-04T18:28:49.730Z,102083.84
2023-05-04T18:31:16.424Z,102089.16
2023-05-04T18:33:43.226Z,102085.13
2023-05-04T18:36:10.080Z,102053.16
2023-05-04T18:38:37.895Z,102094.19
2023-05-04T18:41:05.061Z,102092.69
2023-05-04T18:43:31.785Z,102096.41
2023-05-04T18:45:58.634Z,102095.78
2023-05-04T18:48:25.412Z,102094.63
2023-05-04T18:50:57.239Z,102095.19
2023-05-04T18:53:24.676Z,102103.66
2023-05-04T18:56:03.851Z,102118.44
2023-05-04T18:58:31.209Z,102111.69
2023-05-04T19:00:59.383Z,102115.31
2023-05-04T19:03:26.324Z,102116.03
2023-05-04T19:05:53.130Z,102123.69
2023-05-04T19:08:20.077Z,102119.66
2023-05-04T19:10:49.384Z,102125.31
2023-05-04T19:13:16.686Z,102130.06
2023-05-04T19:15:43.639Z,102126.88
2023-05-04T19:18:12.082Z,102131.13
2023-05-04T19:20:39.796Z,102134.22
2023-05-04T19:23:06.698Z,102127.47
2023-05-04T19:25:35.240Z,102125.66
2023-05-04T19:28:09.036Z,102131.22
2023-05-04T19:30:39.391Z,102135.31
2023-05-04T19:33:09.406Z,102139.03
2023-05-04T19:35:36.315Z,102135.00
2023-05-04T19:38:06.191Z,102124.72
2023-05-04T19:40:34.027Z,102136.38
2023-05-04T19:43:01.078Z,102136.91
2023-05-04T19:45:27.791Z,102136.06
2023-05-04T19:47:54.509Z,102131.00
2023-05-04T19:50:21.452Z,102129.66
2023-05-04T19:52:48.201Z,102129.53
2023-05-04T19:55:16.953Z,102122.25
2023-05-04T19:57:43.849Z,102124.31
2023-05-04T20:00:11.010Z,102120.09
2023-05-04T20:02:47.806Z,102132.94
2023-05-04T20:05:14.552Z,102132.94
2023-05-04T20:07:42.311Z,102132.47
2023-05-04T20:10:09.278Z,102128.03
2023-05-04T20:12:36.154Z,102133.16
2023-05-04T20:15:02.884Z,102121.81
2023-05-04T20:17:31.991Z,102117.78
2023-05-04T20:20:02.715Z,102133.34
2023-05-04T20:22:29.534Z,102134.38
2023-05-04T20:24:57.030Z,102130.81
2023-05-04T20:27:23.815Z,102120.31
2023-05-04T20:29:50.455Z,102126.72
2023-05-04T20:32:17.224Z,102130.97
2023-05-04T20:34:45.116Z,102135.53
2023-05-04T20:37:11.780Z,102133.84
2023-05-04T20:39:38.433Z,102139.59
2023-05-04T20:42:05.770Z,102135.22
2023-05-04T20:44:33.230Z,102132.84
2023-05-04T20:46:59.853Z,102118.31
2023-05-04T20:49:27.550Z,102121.38
2023-05-04T20:51:54.410Z,102115.63
2023-05-04T20:54:21.027Z,102120.19
2023-05-04T20:56:47.607Z,102113.59
2023-05-04T20:59:15.203Z,102117.47
2023-05-04T21:01:41.829Z,102127.63
2023-05-04T21:04:08.512Z,102118.00
2023-05-04T21:06:35.470Z,102113.94
2023-05-04T21:09:02.558Z,102120.03
2023-05-04T21:11:29.192Z,102123.75
2023-05-04T21:13:55.860Z,102130.34
2023-05-04T21:16:22.515Z,102142.16
2023-05-04T21:18:49.252Z,102114.44
2023-05-04T21:21:16.128Z,102137.09
2023-05-04T21:23:42.772Z,102126.78
2023-05-04T21:26:09.538Z,102125.78
2023-05-04T21:28:36.694Z,102122.59
2023-05-04T21:31:09.138Z,102118.34
2023-05-04T21:33:36.317Z,102114.13
2023-05-04T21:36:13.449Z,102083.72
2023-05-04T21:38:40.269Z,102108.19
2023-05-04T21:41:13.863Z,102055.00
2023-05-04T21:43:40.905Z,102107.72
2023-05-04T21:46:08.443Z,102108.88
2023-05-04T21:48:39.906Z,102107.19
2023-05-04T21:51:06.728Z,102086.75
2023-05-04T21:53:33.713Z,102095.38
2023-05-04T21:56:01.361Z,102100.59
2023-05-04T21:58:29.033Z,102100.44
2023-05-04T22:00:56.864Z,102105.16
2023-05-04T22:03:23.610Z,102100.25
2023-05-04T22:05:55.182Z,102096.72
2023-05-04T22:08:22.261Z,102103.44
2023-05-04T22:10:50.337Z,102102.97
2023-05-04T22:13:17.205Z,102116.31
2023-05-04T22:15:50.002Z,102107.19
2023-05-04T22:18:17.604Z,102102.25
2023-05-04T22:20:44.432Z,102103.47
2023-05-04T22:23:11.193Z,102109.03
2023-05-04T22:25:38.475Z,102108.19
2023-05-04T22:28:05.884Z,102109.53
2023-05-04T22:30:32.668Z,102113.25
2023-05-04T22:32:59.390Z,102113.91
2023-05-04T22:35:26.366Z,102111.91
2023-05-04T22:37:53.481Z,102110.38
2023-05-04T22:40:20.111Z,102114.25
2023-05-04T22:42:46.745Z,102116.81
2023-05-04T22:45:18.060Z,102114.25
2023-05-04T22:47:45.775Z,102127.09
2023-05-04T22:50:13.723Z,102121.88
2023-05-04T22:52:40.443Z,102115.28
2023-05-04T22:55:08.208Z,102121.69
2023-05-04T22:57:35.176Z,102116.81
2023-05-04T23:00:01.936Z,102112.09
2023-05-04T23:02:28.640Z,102119.66
2023-05-04T23:04:55.364Z,102121.69
2023-05-04T23:07:22.060Z,102125.91
2023-05-04T23:09:48.646Z,102122.53
2023-05-04T23:12:15.351Z,102126.25
2023-05-04T23:14:42.140Z,102126.75
2023-05-04T23:17:10.400Z,102108.84
2023-05-04T23:19:36.997Z,102127.47
2023-05-04T23:22:03.571Z,102124.94
2023-05-04T23:24:30.226Z,102121.34
2023-05-04T23:26:58.877Z,102127.78
2023-05-04T23:29:25.579Z,102118.81
2023-05-04T23:31:53.861Z,102107.84
2023-05-04T23:34:20.649Z,102120.19
2023-05-04T23:36:47.331Z,102114.09
2023-05-04T23:39:14.340Z,102104.13
2023-05-04T23:41:41.109Z,102108.19
2023-05-04T23:44:08.393Z,102123.38
2023-05-04T23:46:35.082Z,102111.88
2023-05-04T23:49:01.813Z,102117.28
2023-05-04T23:51:28.680Z,102113.91
2023-05-04T23:53:55.893Z,102101.06
2023-05-04T23:56:22.586Z,102105.97
2023-05-04T23:58:49.158Z,102107.16
